createdAt,value
2023-07-12T00:04:27.093Z,3.70
2023-07-12T00:09:33.252Z,3.67
2023-07-12T00:14:36.775Z,3.53
2023-07-12T00:19:40.291Z,3.42
2023-07-12T00:24:45.679Z,3.47
2023-07-12T00:29:49.327Z,3.35
2023-07-12T00:34:52.975Z,3.42
2023-07-12T00:39:57.999Z,3.40
2023-07-12T00:45:04.637Z,3.90
2023-07-12T00:50:19.500Z,3.35
2023-07-12T00:55:55.940Z,3.55
2023-07-12T01:01:03.533Z,3.67
2023-07-12T01:06:11.149Z,3.05
2023-07-12T01:11:17.704Z,2.97
2023-07-12T01:16:25.070Z,3.83
2023-07-12T01:21:33.592Z,3.40
2023-07-12T01:26:39.931Z,3.13
2023-07-12T01:31:44.770Z,2.95
2023-07-12T01:36:49.774Z,3.30
2023-07-12T01:41:54.155Z,3.10
2023-07-12T01:46:58.346Z,3.20
2023-07-12T01:52:03.361Z,3.35
2023-07-12T01:57:07.993Z,3.30
2023-07-12T02:02:12.199Z,2.70
2023-07-12T02:07:17.215Z,2.90
2023-07-12T02:12:20.730Z,3.00
2023-07-12T02:17:24.442Z,2.45
2023-07-12T02:22:32.034Z,3.03
2023-07-12T02:27:35.891Z,2.88
2023-07-12T02:32:39.461Z,2.47
2023-07-12T02:37:44.473Z,2.85
2023-07-12T02:42:48.292Z,2.40
2023-07-12T02:47:51.948Z,2.80
2023-07-12T02:52:58.361Z,2.22
2023-07-12T02:58:01.971Z,2.50
2023-07-12T03:03:05.592Z,2.90
2023-07-12T03:08:10.615Z,2.40
2023-07-12T03:13:14.237Z,2.80
2023-07-12T03:18:17.874Z,3.75
2023-07-12T03:23:22.982Z,3.57
2023-07-12T03:28:27.027Z,4.63
2023-07-12T03:33:31.171Z,4.72
2023-07-12T03:38:36.390Z,4.60
2023-07-12T03:43:40.029Z,4.95
2023-07-12T03:48:43.661Z,4.70
2023-07-12T03:53:48.675Z,4.47
2023-07-12T03:58:52.297Z,4.10
2023-07-12T04:03:55.920Z,4.53
2023-07-12T04:09:02.495Z,3.87
2023-07-12T04:14:06.170Z,3.85
2023-07-12T04:19:09.689Z,4.60
2023-07-12T04:24:14.685Z,5.90
2023-07-12T04:29:18.214Z,5.68
2023-07-12T04:34:37.373Z,7.05
2023-07-12T04:39:44.176Z,5.88
2023-07-12T04:44:48.037Z,6.55
2023-07-12T04:49:51.698Z,5.85
2023-07-12T04:55:00.286Z,4.70
2023-07-12T05:00:04.016Z,3.75
2023-07-12T05:05:09.391Z,3.95
2023-07-12T05:10:14.442Z,3.10
2023-07-12T05:15:18.533Z,3.20
2023-07-12T05:20:22.490Z,4.32
2023-07-12T05:25:27.804Z,3.45
2023-07-12T05:30:32.788Z,3.60
2023-07-12T05:35:36.672Z,3.90
2023-07-12T05:40:41.742Z,3.70
2023-07-12T05:45:45.409Z,3.80
2023-07-12T05:50:51.417Z,3.65
2023-07-12T05:55:59.354Z,2.95
2023-07-12T06:01:04.739Z,2.95
2023-07-12T06:06:09.791Z,2.88
2023-07-12T06:11:14.965Z,5.80
2023-07-12T06:16:18.738Z,3.22
2023-07-12T06:21:22.314Z,2.73
2023-07-12T06:26:27.333Z,2.53
2023-07-12T06:31:31.475Z,2.60
2023-07-12T06:41:40.419Z,2.00
2023-07-12T06:46:43.988Z,2.40
2023-07-12T06:51:47.828Z,2.10
2023-07-12T06:56:52.849Z,2.00
2023-07-12T07:01:56.952Z,2.05
2023-07-12T07:07:00.693Z,2.20
2023-07-12T07:12:06.389Z,2.40
2023-07-12T07:17:11.973Z,2.40
2023-07-12T07:22:15.664Z,2.63
2023-07-12T07:32:24.393Z,2.00
2023-07-12T07:37:28.054Z,2.22
2023-07-12T07:42:33.039Z,1.95
2023-07-12T07:47:36.793Z,2.10
2023-07-12T07:52:40.396Z,1.90
2023-07-12T07:57:45.470Z,2.20
2023-07-12T08:02:49.432Z,2.10
2023-07-12T08:07:53.252Z,1.80
2023-07-12T08:12:59.429Z,2.10
2023-07-12T08:18:03.547Z,2.10
2023-07-12T08:23:08.693Z,2.45
2023-07-12T08:28:14.080Z,1.83
2023-07-12T08:33:17.720Z,1.92
2023-07-12T08:38:21.629Z,1.70
2023-07-12T08:43:34.499Z,2.05
2023-07-12T08:48:39.501Z,3.28
2023-07-12T08:53:43.927Z,2.10
2023-07-12T08:58:52.027Z,1.90
2023-07-12T09:03:55.590Z,2.50
2023-07-12T09:09:00.097Z,1.70
2023-07-12T09:14:05.335Z,1.92
2023-07-12T09:19:16.375Z,1.90
2023-07-12T09:24:25.817Z,1.92
2023-07-12T09:29:34.620Z,1.67
2023-07-12T09:34:41.347Z,1.92
2023-07-12T09:39:56.006Z,1.70
2023-07-12T09:45:05.986Z,2.00
2023-07-12T09:50:17.142Z,1.70
2023-07-12T09:55:27.217Z,1.95
2023-07-12T10:00:36.390Z,1.90
2023-07-12T10:05:42.976Z,1.90
2023-07-12T10:10:52.660Z,1.58
2023-07-12T10:15:59.810Z,1.73
2023-07-12T10:21:04.098Z,1.85
2023-07-12T10:31:34.095Z,1.80
2023-07-12T10:36:38.099Z,2.20
2023-07-12T10:41:49.464Z,1.65
2023-07-12T10:46:58.902Z,1.90
2023-07-12T10:52:16.760Z,1.70
2023-07-12T10:57:30.853Z,1.67
2023-07-12T11:02:45.209Z,1.80
2023-07-12T11:07:48.934Z,1.58
2023-07-12T11:13:11.577Z,1.80
2023-07-12T11:18:27.216Z,1.60
2023-07-12T11:23:50.463Z,1.60
2023-07-12T11:28:54.189Z,1.80
2023-07-12T11:34:08.270Z,1.67
2023-07-12T11:39:19.159Z,1.88
2023-07-12T11:44:23.072Z,1.73
2023-07-12T11:49:32.328Z,1.83
2023-07-12T11:54:39.567Z,1.85
2023-07-12T11:59:46.557Z,1.90
2023-07-12T12:04:58.318Z,1.70
2023-07-12T12:10:05.299Z,1.60
2023-07-12T12:15:20.089Z,1.55
2023-07-12T12:20:28.546Z,1.60
2023-07-12T12:25:32.888Z,1.63
2023-07-12T12:30:36.539Z,1.60
2023-07-12T12:35:52.170Z,1.75
2023-07-12T12:41:01.603Z,1.80
2023-07-12T12:46:22.212Z,1.55
2023-07-12T13:07:01.974Z,1.90
2023-07-12T13:18:00.477Z,1.70
2023-07-12T13:22:46.595Z,1.92
2023-07-12T13:27:52.441Z,2.17
2023-07-12T13:32:56.848Z,1.95
2023-07-12T13:48:29.508Z,2.58
2023-07-12T13:53:34.724Z,1.90
2023-07-12T13:59:02.159Z,1.83
2023-07-12T14:04:04.259Z,1.88
2023-07-12T14:09:10.404Z,1.65
2023-07-12T14:14:15.208Z,1.70
2023-07-12T14:19:18.743Z,1.80
2023-07-12T14:24:24.722Z,1.90
2023-07-12T14:34:35.874Z,1.80
2023-07-12T14:39:41.547Z,1.75
2023-07-12T14:44:45.187Z,1.80
2023-07-12T14:49:52.523Z,1.88
2023-07-12T14:54:59.509Z,1.88
2023-07-12T15:00:05.411Z,2.00
2023-07-12T15:05:14.202Z,2.25
2023-07-12T15:10:21.034Z,1.77
2023-07-12T15:15:27.469Z,1.80
2023-07-12T15:20:31.693Z,1.60
2023-07-12T15:25:36.861Z,2.10
2023-07-12T15:30:41.576Z,1.75
2023-07-12T15:35:45.451Z,2.42
2023-07-12T15:40:59.637Z,1.67
2023-07-12T15:46:04.730Z,1.70
2023-07-12T15:51:20.966Z,2.20
2023-07-12T15:56:32.669Z,2.00
2023-07-12T16:01:38.537Z,1.75
2023-07-12T16:06:42.161Z,1.77
2023-07-12T16:11:48.695Z,2.10
2023-07-12T16:16:54.219Z,2.15
2023-07-12T16:21:57.942Z,1.90
2023-07-12T16:27:03.022Z,2.27
2023-07-12T16:32:08.973Z,2.10
2023-07-12T16:37:18.490Z,2.63
2023-07-12T16:42:32.256Z,2.22
2023-07-12T16:47:36.575Z,1.90
2023-07-12T16:52:40.264Z,1.92
2023-07-12T16:57:45.706Z,1.97
2023-07-12T17:02:49.638Z,2.08
2023-07-12T17:07:53.236Z,1.80
2023-07-12T17:12:58.546Z,1.85
2023-07-12T17:18:04.206Z,2.20
2023-07-12T17:23:19.217Z,2.00
2023-07-12T17:28:27.053Z,1.70
2023-07-12T17:33:30.725Z,2.13
2023-07-12T17:38:35.087Z,1.77
2023-07-12T17:43:40.866Z,2.15
2023-07-12T17:48:45.294Z,1.77
2023-07-12T17:53:48.870Z,2.28
2023-07-12T17:58:53.956Z,2.30
2023-07-12T18:03:58.257Z,3.05
2023-07-12T18:09:02.338Z,2.92
2023-07-12T18:14:07.585Z,3.60
2023-07-12T18:19:11.154Z,3.30
2023-07-12T18:24:21.610Z,3.45
2023-07-12T18:29:26.757Z,3.70
2023-07-12T18:34:30.973Z,3.70
2023-07-12T18:39:34.788Z,3.53
2023-07-12T18:44:39.831Z,3.90
2023-07-12T18:49:44.645Z,4.32
2023-07-12T18:54:49.195Z,4.15
2023-07-12T19:04:58.548Z,3.10
2023-07-12T19:10:02.133Z,3.30
2023-07-12T19:15:17.899Z,3.33
2023-07-12T19:20:22.790Z,3.60
2023-07-12T19:25:28.035Z,3.30
2023-07-12T19:30:33.180Z,3.10
2023-07-12T19:35:36.876Z,2.63
2023-07-12T19:40:40.597Z,3.33
2023-07-12T19:45:45.879Z,3.17
2023-07-12T19:50:49.603Z,2.92
2023-07-12T19:55:53.241Z,2.83
2023-07-12T20:00:58.182Z,2.50
2023-07-12T20:06:01.741Z,3.10
2023-07-12T20:11:06.237Z,2.95
2023-07-12T20:16:12.341Z,2.78
2023-07-12T20:21:16.687Z,2.90
2023-07-12T20:26:21.023Z,2.90
2023-07-12T20:31:26.257Z,3.30
2023-07-12T20:36:30.662Z,3.30
2023-07-12T20:41:34.713Z,3.80
2023-07-12T20:46:39.899Z,3.22
2023-07-12T20:51:43.610Z,3.97
2023-07-12T20:56:47.767Z,3.87
2023-07-12T21:01:52.802Z,4.07
2023-07-12T21:06:56.534Z,3.38
2023-07-12T21:12:00.270Z,3.50
2023-07-12T21:17:06.045Z,3.60
2023-07-12T21:22:09.924Z,3.25
2023-07-12T21:27:13.982Z,2.95
2023-07-12T21:32:19.357Z,3.00
2023-07-12T21:37:23.036Z,3.13
2023-07-12T21:42:26.894Z,2.67
2023-07-12T21:47:31.946Z,3.10
2023-07-12T21:52:35.510Z,2.72
2023-07-12T21:57:39.085Z,2.80
2023-07-12T22:02:44.367Z,2.70
2023-07-12T22:07:55.167Z,2.47
2023-07-12T22:13:00.403Z,2.78
2023-07-12T22:18:06.920Z,2.95
2023-07-12T22:23:10.971Z,3.65
2023-07-12T22:28:14.701Z,2.50
2023-07-12T22:33:19.958Z,2.40
2023-07-12T22:38:23.735Z,2.67
2023-07-12T22:43:27.676Z,2.20
2023-07-12T22:48:32.678Z,2.53
2023-07-12T22:53:36.552Z,2.30
2023-07-12T22:58:41.115Z,2.67
2023-07-12T23:08:50.431Z,2.30
2023-07-12T23:13:53.948Z,2.28
2023-07-12T23:18:59.455Z,2.20
2023-07-12T23:24:03.107Z,2.50
2023-07-12T23:29:06.724Z,2.35
2023-07-12T23:34:12.216Z,2.37
2023-07-12T23:39:16.026Z,2.20
2023-07-12T23:44:19.738Z,2.40
2023-07-12T23:49:25.827Z,2.40
2023-07-12T23:54:31.336Z,2.47
2023-07-12T23:59:35.289Z,2.88
